createdAt,value
2022-12-01T00:00:21.098Z,94.97
2022-12-01T00:03:43.128Z,94.93
2022-12-01T00:07:06.571Z,94.98
2022-12-01T00:10:28.844Z,95.05
2022-12-01T00:13:50.528Z,94.94
2022-12-01T00:17:12.524Z,94.92
2022-12-01T00:20:35.646Z,95.04
2022-12-01T00:23:59.712Z,94.98
2022-12-01T00:27:21.532Z,95.05
2022-12-01T00:30:43.234Z,95.07
2022-12-01T00:34:10.790Z,94.91
2022-12-01T00:37:34.997Z,94.94
2022-12-01T00:40:58.713Z,94.88
2022-12-01T00:44:20.374Z,94.91
2022-12-01T00:47:43.095Z,94.95
2022-12-01T00:51:05.351Z,95.08
2022-12-01T00:54:27.100Z,95.18
2022-12-01T00:57:50.634Z,95.14
2022-12-01T01:01:14.138Z,95.41
2022-12-01T01:04:37.811Z,95.25
2022-12-01T01:07:59.845Z,95.35
2022-12-01T01:11:21.763Z,95.23
2022-12-01T01:14:45.203Z,95.01
2022-12-01T01:18:09.748Z,95.31
2022-12-01T01:21:31.823Z,95.37
2022-12-01T01:24:53.730Z,95.42
2022-12-01T01:28:15.644Z,95.26
2022-12-01T01:31:38.798Z,95.58
2022-12-01T01:35:00.490Z,95.11
2022-12-01T01:38:22.045Z,95.28
2022-12-01T01:41:43.995Z,95.11
2022-12-01T01:45:16.055Z,94.96
2022-12-01T01:48:41.275Z,94.91
2022-12-01T01:52:05.801Z,94.77
2022-12-01T01:55:28.645Z,94.90
2022-12-01T01:58:51.752Z,94.73
2022-12-01T02:02:14.654Z,94.43
2022-12-01T02:05:39.532Z,94.87
2022-12-01T02:09:01.648Z,95.06
2022-12-01T02:12:39.067Z,94.75
2022-12-01T02:16:10.287Z,95.16
2022-12-01T02:19:47.260Z,95.29
2022-12-01T02:23:40.287Z,94.96
2022-12-01T02:27:09.792Z,94.90
2022-12-01T02:30:37.915Z,95.10
2022-12-01T02:34:07.960Z,95.41
2022-12-01T02:37:35.271Z,95.53
2022-12-01T02:41:01.571Z,95.48
2022-12-01T02:44:30.498Z,95.47
2022-12-01T02:47:57.576Z,95.37
2022-12-01T02:51:22.603Z,95.52
2022-12-01T02:54:45.653Z,95.81
2022-12-01T02:58:15.360Z,95.58
2022-12-01T03:01:42.757Z,95.54
2022-12-01T03:05:12.613Z,95.74
2022-12-01T03:08:49.243Z,96.36
2022-12-01T03:12:21.063Z,95.84
2022-12-01T03:15:53.709Z,95.86
2022-12-01T03:19:20.357Z,95.79
2022-12-01T03:22:50.420Z,95.83
2022-12-01T03:26:17.172Z,95.79
2022-12-01T03:29:43.315Z,95.69
2022-12-01T03:33:10.174Z,96.22
2022-12-01T03:36:38.436Z,96.05
2022-12-01T03:40:06.401Z,96.11
2022-12-01T03:43:32.777Z,95.87
2022-12-01T03:46:58.643Z,95.83
2022-12-01T03:50:20.852Z,95.92
2022-12-01T03:53:52.674Z,96.05
2022-12-01T03:57:25.593Z,96.07
2022-12-01T04:00:53.417Z,95.91
2022-12-01T04:04:15.978Z,95.90
2022-12-01T04:07:38.073Z,95.99
2022-12-01T04:10:59.822Z,96.13
2022-12-01T04:14:22.091Z,96.04
2022-12-01T04:17:46.458Z,95.65
2022-12-01T04:21:08.644Z,95.95
2022-12-01T04:24:30.731Z,95.74
2022-12-01T04:27:52.801Z,95.87
2022-12-01T04:31:16.334Z,95.85
2022-12-01T04:34:38.419Z,96.04
2022-12-01T04:38:00.972Z,96.00
2022-12-01T04:41:23.282Z,96.16
2022-12-01T04:44:45.456Z,96.22
2022-12-01T04:48:09.073Z,96.04
2022-12-01T04:51:30.993Z,96.16
2022-12-01T04:54:55.407Z,96.03
2022-12-01T04:58:18.327Z,95.87
2022-12-01T05:01:41.211Z,95.83
2022-12-01T05:05:06.996Z,95.80
2022-12-01T05:08:29.046Z,95.86
2022-12-01T05:11:51.119Z,95.85
2022-12-01T05:15:13.055Z,95.80
2022-12-01T05:18:35.511Z,95.53
2022-12-01T05:21:57.850Z,95.83
2022-12-01T05:25:20.160Z,95.53
2022-12-01T05:28:42.027Z,95.52
2022-12-01T05:32:04.160Z,95.97
2022-12-01T05:35:26.241Z,95.65
2022-12-01T05:38:49.174Z,95.80
2022-12-01T05:42:11.074Z,95.57
2022-12-01T05:45:33.155Z,95.56
2022-12-01T05:48:55.073Z,95.46
2022-12-01T05:52:17.586Z,95.18
2022-12-01T05:55:41.009Z,95.46
2022-12-01T05:59:03.074Z,95.14
2022-12-01T06:02:26.912Z,94.99
2022-12-01T06:05:48.656Z,94.98
2022-12-01T06:09:10.944Z,94.74
2022-12-01T06:12:34.465Z,94.87
2022-12-01T06:16:01.113Z,94.45
2022-12-01T06:19:23.151Z,94.27
2022-12-01T06:22:48.355Z,94.48
2022-12-01T06:26:10.466Z,94.46
2022-12-01T06:29:37.711Z,94.38
2022-12-01T06:33:02.811Z,94.06
2022-12-01T06:36:24.860Z,94.21
2022-12-01T06:39:47.144Z,94.20
2022-12-01T06:43:08.958Z,93.94
2022-12-01T06:46:32.534Z,94.15
2022-12-01T06:49:54.528Z,93.88
2022-12-01T06:53:16.211Z,93.68
2022-12-01T06:56:38.267Z,93.83
2022-12-01T07:00:00.232Z,93.83
2022-12-01T07:03:23.711Z,93.49
2022-12-01T07:06:45.827Z,93.71
2022-12-01T07:10:12.971Z,93.48
2022-12-01T07:13:35.110Z,93.55
2022-12-01T07:16:56.977Z,93.06
2022-12-01T07:20:20.184Z,93.26
2022-12-01T07:23:42.014Z,92.78
2022-12-01T07:27:03.868Z,92.80
2022-12-01T07:30:28.515Z,93.10
2022-12-01T07:33:50.699Z,92.72
2022-12-01T07:37:14.137Z,92.40
2022-12-01T07:40:35.905Z,92.40
2022-12-01T07:43:57.700Z,91.86
2022-12-01T07:47:20.077Z,92.03
2022-12-01T07:50:41.672Z,91.96
2022-12-01T07:54:07.973Z,91.52
2022-12-01T07:57:30.097Z,91.67
2022-12-01T08:00:52.360Z,91.00
2022-12-01T08:04:14.762Z,91.31
2022-12-01T08:07:36.682Z,91.02
2022-12-01T08:11:03.376Z,90.77
2022-12-01T08:14:25.650Z,90.51
2022-12-01T08:17:47.849Z,90.56
2022-12-01T08:21:12.479Z,90.30
2022-12-01T08:24:34.620Z,90.56
2022-12-01T08:27:58.228Z,89.98
2022-12-01T08:31:25.690Z,89.79
2022-12-01T08:34:53.172Z,88.97
2022-12-01T08:38:15.939Z,89.31
2022-12-01T08:41:37.778Z,88.96
2022-12-01T08:45:03.530Z,88.59
2022-12-01T08:48:25.691Z,88.08
2022-12-01T08:51:47.495Z,88.27
2022-12-01T08:55:10.642Z,88.32
2022-12-01T08:58:32.738Z,87.90
2022-12-01T09:01:57.711Z,87.65
2022-12-01T09:05:20.275Z,87.97
2022-12-01T09:08:42.037Z,87.48
2022-12-01T09:12:03.939Z,87.25
2022-12-01T09:15:28.426Z,86.81
2022-12-01T09:18:51.698Z,86.27
2022-12-01T09:22:13.883Z,86.61
2022-12-01T09:25:35.940Z,86.44
2022-12-01T09:29:05.137Z,85.31
2022-12-01T09:32:27.080Z,85.03
2022-12-01T09:35:50.768Z,85.39
2022-12-01T09:39:14.826Z,84.99
2022-12-01T09:42:37.799Z,85.29
2022-12-01T09:46:04.084Z,85.55
2022-12-01T09:49:29.993Z,85.72
2022-12-01T09:53:00.485Z,85.91
2022-12-01T09:56:24.589Z,85.91
2022-12-01T09:59:48.281Z,85.30
2022-12-01T10:03:24.039Z,85.85
2022-12-01T10:06:53.049Z,85.39
2022-12-01T10:10:22.141Z,84.56
2022-12-01T10:13:43.986Z,85.24
2022-12-01T10:17:23.078Z,84.84
2022-12-01T10:20:47.751Z,84.75
2022-12-01T10:24:26.050Z,85.19
2022-12-01T10:28:24.319Z,85.20
2022-12-01T10:31:54.815Z,84.89
2022-12-01T10:35:20.334Z,85.19
2022-12-01T10:38:43.226Z,85.28
2022-12-01T10:42:09.151Z,84.47
2022-12-01T10:45:40.705Z,84.57
2022-12-01T10:49:10.268Z,83.86
2022-12-01T10:52:37.601Z,84.26
2022-12-01T10:56:05.477Z,84.30
2022-12-01T10:59:32.742Z,84.01
2022-12-01T11:02:56.859Z,83.76
2022-12-01T11:06:27.204Z,84.38
2022-12-01T11:10:01.745Z,83.62
2022-12-01T11:13:28.990Z,84.18
2022-12-01T11:16:56.255Z,83.54
2022-12-01T11:20:36.163Z,82.88
2022-12-01T11:23:58.070Z,83.36
2022-12-01T11:27:22.492Z,83.67
2022-12-01T11:30:44.922Z,83.12
2022-12-01T11:34:07.759Z,83.47
2022-12-01T11:37:33.706Z,83.08
2022-12-01T11:40:57.808Z,83.25
2022-12-01T11:44:43.526Z,82.24
2022-12-01T11:48:26.113Z,82.76
2022-12-01T11:51:48.931Z,82.99
2022-12-01T11:55:24.300Z,82.71
2022-12-01T11:58:51.961Z,82.15
2022-12-01T12:02:27.362Z,82.49
2022-12-01T12:10:14.908Z,82.52
2022-12-01T12:14:03.667Z,82.73
2022-12-01T12:17:48.682Z,83.01
2022-12-01T12:21:21.567Z,83.25
2022-12-01T12:24:56.769Z,83.40
2022-12-01T12:28:35.382Z,83.92
2022-12-01T12:32:11.212Z,84.14
2022-12-01T12:35:40.694Z,84.35
2022-12-01T12:39:24.591Z,84.67
2022-12-01T12:42:55.971Z,85.53
2022-12-01T12:46:22.983Z,85.53
2022-12-01T12:49:52.223Z,85.58
2022-12-01T12:53:21.312Z,85.50
2022-12-01T12:56:49.598Z,85.22
2022-12-01T13:00:17.332Z,85.35
2022-12-01T13:03:50.678Z,85.48
2022-12-01T13:07:26.946Z,85.67
2022-12-01T13:10:58.607Z,85.69
2022-12-01T13:14:29.691Z,85.69
2022-12-01T13:17:54.171Z,85.80
2022-12-01T13:21:21.186Z,85.46
2022-12-01T13:24:44.766Z,85.83
2022-12-01T13:28:15.688Z,85.97
2022-12-01T13:31:45.566Z,85.94
2022-12-01T13:35:23.181Z,86.22
2022-12-01T13:38:52.692Z,86.76
2022-12-01T13:42:24.357Z,86.54
2022-12-01T13:45:49.519Z,87.10
2022-12-01T13:49:43.981Z,87.29
2022-12-01T13:53:13.854Z,87.64
2022-12-01T13:56:41.178Z,88.02
2022-12-01T14:00:21.588Z,88.11
2022-12-01T14:03:56.806Z,88.68
2022-12-01T14:07:35.267Z,88.53
2022-12-01T14:11:00.154Z,89.33
2022-12-01T14:14:26.325Z,89.76
2022-12-01T14:18:00.544Z,89.54
2022-12-01T14:21:46.960Z,90.12
2022-12-01T14:25:27.076Z,90.48
2022-12-01T14:29:30.604Z,90.58
2022-12-01T14:33:14.605Z,90.33
2022-12-01T14:36:40.962Z,90.11
2022-12-01T14:40:09.883Z,90.03
2022-12-01T14:44:01.570Z,89.94
2022-12-01T14:47:26.859Z,90.06
2022-12-01T14:50:53.519Z,90.66
2022-12-01T14:54:26.641Z,90.00
2022-12-01T14:57:51.337Z,90.32
2022-12-01T15:01:15.179Z,90.62
2022-12-01T15:04:57.835Z,90.58
2022-12-01T15:12:08.064Z,89.96
2022-12-01T15:15:30.259Z,90.65
2022-12-01T15:18:53.014Z,90.15
2022-12-01T15:22:20.490Z,90.37
2022-12-01T15:25:45.434Z,90.25
2022-12-01T15:29:17.819Z,90.05
2022-12-01T15:32:45.480Z,89.92
2022-12-01T15:36:08.974Z,90.77
2022-12-01T15:39:35.011Z,90.83
2022-12-01T15:43:06.405Z,91.05
2022-12-01T15:46:30.418Z,91.28
2022-12-01T15:49:52.338Z,91.27
2022-12-01T15:53:23.958Z,91.29
2022-12-01T15:56:46.594Z,91.86
2022-12-01T16:00:20.837Z,91.84
2022-12-01T16:03:53.092Z,92.39
2022-12-01T16:07:16.065Z,92.51
2022-12-01T16:10:38.424Z,92.91
2022-12-01T16:14:03.251Z,93.19
2022-12-01T16:17:28.135Z,93.35
2022-12-01T16:20:51.784Z,92.90
2022-12-01T16:24:17.294Z,93.75
2022-12-01T16:27:41.181Z,93.42
2022-12-01T16:31:05.315Z,93.02
2022-12-01T16:34:45.292Z,92.78
2022-12-01T16:38:16.007Z,93.25
2022-12-01T16:41:41.294Z,92.61
2022-12-01T16:45:03.218Z,92.27
2022-12-01T16:48:25.357Z,92.68
2022-12-01T16:51:57.030Z,92.39
2022-12-01T16:55:31.346Z,92.19
2022-12-01T16:58:53.299Z,91.69
2022-12-01T17:02:15.135Z,90.89
2022-12-01T17:05:38.194Z,90.93
2022-12-01T17:09:01.694Z,90.74
2022-12-01T17:12:26.457Z,90.44
2022-12-01T17:15:50.120Z,89.83
2022-12-01T17:19:12.298Z,90.14
2022-12-01T17:22:34.806Z,89.80
2022-12-01T17:25:58.448Z,89.26
2022-12-01T17:29:20.459Z,88.48
2022-12-01T17:32:42.251Z,88.90
2022-12-01T17:36:06.731Z,88.78
2022-12-01T17:39:28.774Z,88.15
2022-12-01T17:42:51.776Z,87.60
2022-12-01T17:46:14.256Z,87.30
2022-12-01T17:49:37.053Z,86.64
2022-12-01T17:52:59.328Z,86.05
2022-12-01T17:56:21.493Z,85.77
2022-12-01T17:59:45.327Z,85.85
2022-12-01T18:03:07.763Z,85.51
2022-12-01T18:06:30.158Z,85.32
2022-12-01T18:09:52.391Z,84.86
2022-12-01T18:13:14.630Z,84.17
2022-12-01T18:16:37.987Z,84.92
2022-12-01T18:20:00.085Z,84.41
2022-12-01T18:23:21.831Z,84.15
2022-12-01T18:26:44.255Z,84.54
2022-12-01T18:30:07.549Z,84.17
2022-12-01T18:33:30.755Z,83.47
2022-12-01T18:36:52.908Z,83.80
2022-12-01T18:40:16.351Z,84.35
2022-12-01T18:43:38.602Z,84.14
2022-12-01T18:47:02.763Z,84.32
2022-12-01T18:50:26.125Z,84.38
2022-12-01T18:53:48.876Z,84.49
2022-12-01T18:57:11.950Z,84.27
2022-12-01T19:00:34.142Z,84.42
2022-12-01T19:03:56.396Z,84.92
2022-12-01T19:07:19.431Z,84.74
2022-12-01T19:10:41.413Z,84.76
2022-12-01T19:14:03.708Z,84.61
2022-12-01T19:17:25.904Z,84.75
2022-12-01T19:20:48.003Z,84.65
2022-12-01T19:24:11.322Z,84.75
2022-12-01T19:27:33.311Z,84.67
2022-12-01T19:30:55.941Z,84.37
2022-12-01T19:34:17.828Z,84.37
2022-12-01T19:37:39.572Z,85.13
2022-12-01T19:41:03.420Z,84.66
2022-12-01T19:44:25.174Z,85.53
2022-12-01T19:47:47.364Z,85.16
2022-12-01T19:51:17.815Z,84.67
2022-12-01T19:54:40.261Z,85.15
2022-12-01T19:58:06.749Z,85.04
2022-12-01T20:01:29.311Z,85.30
2022-12-01T20:04:51.488Z,85.39
2022-12-01T20:08:14.430Z,85.39
2022-12-01T20:11:36.962Z,85.73
2022-12-01T20:15:00.781Z,85.24
2022-12-01T20:18:22.885Z,85.38
2022-12-01T20:21:45.154Z,85.44
2022-12-01T20:25:09.692Z,85.45
2022-12-01T20:28:31.745Z,85.47
2022-12-01T20:31:56.105Z,85.25
2022-12-01T20:35:20.570Z,85.74
2022-12-01T20:38:45.039Z,85.99
2022-12-01T20:42:10.604Z,85.30
2022-12-01T20:45:32.774Z,85.08
2022-12-01T20:48:56.036Z,85.10
2022-12-01T20:52:18.003Z,85.27
2022-12-01T20:55:40.127Z,84.77
2022-12-01T20:59:02.112Z,85.09
2022-12-01T21:02:24.166Z,85.91
2022-12-01T21:05:47.692Z,85.75
2022-12-01T21:09:09.693Z,85.79
2022-12-01T21:12:49.460Z,85.84
2022-12-01T21:16:15.095Z,85.06
2022-12-01T21:19:46.398Z,85.59
2022-12-01T21:23:13.266Z,85.26
2022-12-01T21:26:35.119Z,84.94
2022-12-01T21:29:56.954Z,85.78
2022-12-01T21:33:28.597Z,85.64
2022-12-01T21:36:52.387Z,85.34
2022-12-01T21:40:24.563Z,86.00
2022-12-01T21:43:46.660Z,85.28
2022-12-01T21:47:18.989Z,85.62
2022-12-01T21:50:40.793Z,85.34
2022-12-01T21:54:03.405Z,86.20
2022-12-01T21:57:42.551Z,85.62
2022-12-01T22:01:17.965Z,85.98
2022-12-01T22:04:39.603Z,86.22
2022-12-01T22:08:11.309Z,85.44
2022-12-01T22:11:33.493Z,85.30
2022-12-01T22:15:02.035Z,85.71
2022-12-01T22:18:25.797Z,86.44
2022-12-01T22:21:49.288Z,85.30
2022-12-01T22:25:23.812Z,85.57
2022-12-01T22:28:46.648Z,85.88
2022-12-01T22:32:41.472Z,85.44
2022-12-01T22:36:03.435Z,85.48
2022-12-01T22:39:30.991Z,86.60
2022-12-01T22:42:53.266Z,86.12
2022-12-01T22:46:31.526Z,86.13
2022-12-01T22:49:57.164Z,85.63
2022-12-01T22:53:23.505Z,85.72
2022-12-01T22:56:47.610Z,85.53
2022-12-01T23:00:17.470Z,86.56
2022-12-01T23:03:39.435Z,85.66
2022-12-01T23:07:10.296Z,86.48
2022-12-01T23:10:35.862Z,86.40
2022-12-01T23:13:58.113Z,86.23
2022-12-01T23:17:22.363Z,85.47
2022-12-01T23:20:45.222Z,86.53
2022-12-01T23:24:11.895Z,85.28
2022-12-01T23:27:33.660Z,85.30
2022-12-01T23:30:58.118Z,85.68
2022-12-01T23:34:20.336Z,85.44
2022-12-01T23:37:44.819Z,85.13
2022-12-01T23:41:12.041Z,85.72
2022-12-01T23:44:40.823Z,85.31
2022-12-01T23:48:06.774Z,84.89
2022-12-01T23:51:38.065Z,85.34
2022-12-01T23:55:00.226Z,85.35
2022-12-01T23:58:24.078Z,85.20
